Dados meteorológicos de METAR da aviação     EFOU Oulu Airport
Temperatura
46°F Temperatura
45°F Ponto de orvalho
93% Umidade



Vento
9 MPH
14 KM/H
4 M/S
8 NÓS



110°
LSL
Condições atuais

Encoberto Encoberto
Pressão 1014.92 (hPa) - 29.97 (inHg)
Visibilidade 6.2 (milha) - 10 (km)
Aeroporto
Código do aeroporto EFOU

Localização: Oulu Airport
Distância: 83 (mi)

Metar:
EFOU 281150Z AUTO 11008KT 9999 OVC009 08/07 Q1015

Hora: 28-09-2022 14:50 EEST